Flight Track Log - Related Links

Times and Time Zones

All times are in EDT time to prevent confusion due to time zone crossing. See the EJM918 flight status page for this flight to view local times or setup timezone preferences in your user account.

Time Position Orientation Groundspeed Altitude Reporting Facility
EDT Latitude Longitude Course Direction KTS MPH feet Rate Location/Type
Wed 02:24:01 PM 39.0000 -77.5500 307° West 229 264 4,000  Level Potomac TRACON
Wed 02:25:01 PM 39.0667 -77.5500 360° North 277 319 8,200 2,500 Climbing Potomac TRACON
Wed 02:26:01 PM 39.1333 -77.5000 30° Northeast 279 321 9,000 397 Climbing Potomac TRACON
Wed 02:27:02 PM 39.1667 -77.4167 63° Northeast 265 305 9,000 1,720 Level Potomac TRACON
Wed 02:31:08 PM 39.3324 -76.9881 63° Northeast 362 417 17,800 1,688 Climbing FlightAware ADS-B (KSYR)
Wed 02:32:29 PM 39.3111 -76.8135 99° East 370 426 18,200 1,773 Climbing FlightAware ADS-B (KSYR)
Wed 02:34:04 PM 39.2842 -76.5975 99° East 390 449 23,000 2,250 Climbing FlightAware ADS-B (KSYR)
Wed 02:34:37 PM 39.2758 -76.5313 99° East 371 427 23,000  Level FlightAware ADS-B (KSYR)
Wed 02:35:09 PM 39.2665 -76.4583 99° East 371 427 23,000  Level FlightAware ADS-B (KSYR)
Wed 02:35:59 PM 39.2521 -76.3454 99° East 373 429 23,000  Level FlightAware ADS-B (KSYR)
Wed 02:37:31 PM 39.2290 -76.1663 99° East 369 425 23,000  Level FlightAware ADS-B (KSYR)
Wed 02:38:11 PM 39.2154 -76.0611 99° East 371 427 23,000  Level FlightAware ADS-B (KSYR)
Wed 02:40:09 PM 39.2458 -75.8109 81° East 388 447 23,000  Level FlightAware ADS-B (KSYR)
Wed 02:42:01 PM 39.3877 -75.6270 45° Northeast 392 451 23,000  Level FlightAware ADS-B (KSYR)
Wed 02:42:54 PM 39.4531 -75.5458 45° Northeast 370 426 23,000  Level Washington Center
Wed 02:43:55 PM 39.5300 -75.4436 46° Northeast 382 440 23,000  Level Washington Center
Wed 02:45:39 PM 39.6464 -75.2681 49° Northeast 401 461 23,000  Level New York Center
Wed 02:46:39 PM 39.6744 -75.1322 75° East 383 441 23,000  Level New York Center
Wed 02:47:39 PM 39.7050 -74.9775 76° East 405 466 23,000  Level New York Center
Wed 02:48:39 PM 39.7325 -74.8469 75° East 383 441 23,000  Level New York Center
Wed 02:49:39 PM 39.7603 -74.7053 76° East 402 463 23,000  Level New York Center
Wed 02:50:39 PM 39.7986 -74.5508 72° East 430 495 23,000  Level New York Center
Wed 02:51:39 PM 39.8481 -74.3778 70° East 450 518 23,000 -100 Level New York Center
Wed 02:52:39 PM 39.9228 -74.2436 54° Northeast 456 525 22,800 -800 Descending New York Center
Wed 02:53:39 PM 39.9997 -74.1119 53° Northeast 450 518 21,400 -1,150 Descending New York Center
Wed 02:54:39 PM 40.0719 -73.9825 54° Northeast 445 512 20,500 -900 Descending New York Center
Wed 02:55:39 PM 40.1397 -73.8633 53° Northeast 434 499 19,600 -685 Descending New York Center
Wed 03:01:13 PM 40.6098 -73.3693 53° Northeast 404 465 16,000 -656 Descending FlightAware ADS-B (KSNC)
Wed 03:01:45 PM 40.6655 -73.3492 15° North 368 423 15,600 -750 Descending FlightAware ADS-B (KSNC)
Wed 03:02:25 PM 40.7271 -73.3271 15° North 324 373 15,100 -658 Descending FlightAware ADS-B (KSNC)
Wed 03:02:58 PM 40.7704 -73.3113 15° North 321 369 14,800 -571 Descending FlightAware ADS-B (KSNC)
Wed 03:03:07 PM 40.7836 -73.3035 24° Northeast 302 348 14,700 -667 Descending FlightAware ADS-B (KSNC)
Wed 03:03:16 PM 40.7939 -73.2930 38° Northeast 299 344 14,600 -214 Descending FlightAware ADS-B (KSNC)
Wed 03:03:35 PM 40.8103 -73.2657 52° Northeast 297 342 14,600 -493 Level FlightAware ADS-B (KSNC)
Wed 03:04:29 PM 40.8504 -73.1845 57° Northeast 296 341 14,000 -1,290 Descending FlightAware ADS-B (KSNC)
Wed 03:05:22 PM 40.8902 -73.1038 57° Northeast 290 334 12,300 -1,929 Descending FlightAware ADS-B (KSNC)
Wed 03:05:53 PM 40.9123 -73.0585 57° Northeast 284 327 11,300 -2,308 Descending FlightAware ADS-B (KSNC)
Wed 03:06:27 PM 40.9365 -73.0091 57° Northeast 283 326 9,800 -2,073 Descending FlightAware ADS-B (KSNC)
Wed 03:06:48 PM 40.9510 -72.9860 50° Northeast 287 330 9,400 -1,241 Descending FlightAware ADS-B (KSNC)
Wed 03:06:56 PM 40.9634 -72.9772 28° Northeast 287 330 9,200 -1,737 Descending FlightAware ADS-B (KSNC)
Wed 03:07:26 PM 41.0014 -72.9796 357° North 293 337 8,300 -1,600 Descending FlightAware ADS-B (KSNC)
Wed 03:07:56 PM 41.0362 -73.0106 326° Northwest 291 335 7,600 -824 Descending FlightAware ADS-B (KSNC)
Wed 03:08:17 PM 41.0595 -73.0319 325° Northwest 292 336 7,600  Level FlightAware ADS-B (KSNC)
Wed 03:08:37 PM 41.0820 -73.0524 325° Northwest 291 335 7,600  Level FlightAware ADS-B (KSNC)
Wed 03:08:56 PM 41.1029 -73.0716 325° Northwest 292 336 7,600  Level FlightAware ADS-B (KSNC)
Wed 03:09:18 PM 41.1271 -73.0938 325° Northwest 291 335 7,600 -585 Level FlightAware ADS-B (KSNC)
Wed 03:09:37 PM 41.1474 -73.1138 323° Northwest 289 333 7,200 -1,579 Descending FlightAware ADS-B (KSNC)
Wed 03:09:56 PM 41.1606 -73.1430 301° West 292 336 6,600 -2,000 Descending FlightAware ADS-B (KSNC)
Wed 03:10:07 PM 41.1630 -73.1559 284° West 296 341 6,200 -2,063 Descending FlightAware ADS-B (KSNC)
Wed 03:10:28 PM 41.1658 -73.1891 276° West 294 338 5,500 -1,667 Descending FlightAware ADS-B (KSNC)
Wed 03:10:43 PM 41.1686 -73.2264 276° West 289 333 5,200 -1,579 Descending FlightAware ADS-B (KSNC)
Wed 03:11:06 PM 41.1713 -73.2627 276° West 288 331 4,500 -2,154 Descending FlightAware ADS-B (KSNC)
Wed 03:11:22 PM 41.1738 -73.2942 276° West 286 329 3,800 -1,129 Descending FlightAware ADS-B (KSNC)
Wed 03:12:47 PM 41.1500 -73.4167 276° West 266 306 2,600 -777 Descending New York TRACON
Wed 03:13:41 PM 41.1000 -73.4667 217° Southwest 229 264 2,000 -300 Descending New York TRACON
Wed 03:14:47 PM 41.0500 -73.5167 217° Southwest 190 219 2,000  Level New York TRACON
Wed 03:15:47 PM 41.0167 -73.5667 229° Southwest 178 205 2,000  Level New York TRACON
Wed 03:16:47 PM 40.9833 -73.6000 217° Southwest 173 199 2,000 -100 Level New York TRACON
Wed 03:17:47 PM 41.0000 -73.6500 294° West 159 183 1,800 -450 Descending New York TRACON
Wed 03:18:47 PM 41.0333 -73.6833 323° Northwest 122 140 1,100 -700 Descending New York TRACON
Wed 03:20:00 PM 41.0667 -73.7000 318° Northwest  Level FlightAware Approximate
Wed 03:27:00 PM 41.0669 -73.7076 318° Northwest  Level Estimated
Wed 03:28:00 PM 41.0667 -73.7000 318° Northwest  Level FlightAware Approximate

Login

Don't have an account? Register now (free) for customized features, flight alerts, and more!